sensor_id;sensor_type;location;lat;lon;timestamp;P1;durP1;ratioP1;P2;durP2;ratioP2
27257;SDS011;62045;49.986;8.672;2022-12-29T00:03:59;8.77;;;3.65;;
27257;SDS011;62045;49.986;8.672;2022-12-29T00:09:00;8.05;;;3.53;;
27257;SDS011;62045;49.986;8.672;2022-12-29T00:14:01;7.50;;;3.50;;
27257;SDS011;62045;49.986;8.672;2022-12-29T00:19:04;5.72;;;3.42;;
27257;SDS011;62045;49.986;8.672;2022-12-29T00:24:05;8.63;;;4.03;;
27257;SDS011;62045;49.986;8.672;2022-12-29T00:29:06;9.35;;;3.47;;
27257;SDS011;62045;49.986;8.672;2022-12-29T00:34:10;7.35;;;3.15;;
27257;SDS011;62045;49.986;8.672;2022-12-29T00:39:12;7.88;;;2.88;;
27257;SDS011;62045;49.986;8.672;2022-12-29T00:44:15;8.38;;;3.47;;
27257;SDS011;62045;49.986;8.672;2022-12-29T00:49:19;5.97;;;2.90;;
27257;SDS011;62045;49.986;8.672;2022-12-29T00:54:20;6.13;;;3.35;;
27257;SDS011;62045;49.986;8.672;2022-12-29T00:59:21;8.43;;;3.30;;
27257;SDS011;62045;49.986;8.672;2022-12-29T01:04:24;8.82;;;3.25;;
27257;SDS011;62045;49.986;8.672;2022-12-29T01:09:25;7.85;;;2.70;;
27257;SDS011;62045;49.986;8.672;2022-12-29T01:14:26;6.25;;;3.15;;
27257;SDS011;62045;49.986;8.672;2022-12-29T01:19:29;6.63;;;2.90;;
27257;SDS011;62045;49.986;8.672;2022-12-29T01:24:30;7.40;;;3.13;;
27257;SDS011;62045;49.986;8.672;2022-12-29T01:29:30;6.90;;;2.63;;
27257;SDS011;62045;49.986;8.672;2022-12-29T01:34:32;8.75;;;3.30;;
27257;SDS011;62045;49.986;8.672;2022-12-29T01:39:33;8.05;;;2.83;;
27257;SDS011;62045;49.986;8.672;2022-12-29T01:44:47;5.53;;;2.55;;
27257;SDS011;62045;49.986;8.672;2022-12-29T01:49:52;7.68;;;2.92;;
27257;SDS011;62045;49.986;8.672;2022-12-29T01:54:55;7.30;;;3.05;;
27257;SDS011;62045;49.986;8.672;2022-12-29T01:59:58;8.95;;;2.67;;
27257;SDS011;62045;49.986;8.672;2022-12-29T02:10:06;7.68;;;2.83;;
27257;SDS011;62045;49.986;8.672;2022-12-29T02:15:08;6.55;;;2.55;;
27257;SDS011;62045;49.986;8.672;2022-12-29T02:26:04;6.68;;;2.55;;
27257;SDS011;62045;49.986;8.672;2022-12-29T02:31:20;6.22;;;3.00;;
27257;SDS011;62045;49.986;8.672;2022-12-29T02:36:29;5.63;;;2.40;;
27257;SDS011;62045;49.986;8.672;2022-12-29T02:41:38;6.35;;;2.42;;
27257;SDS011;62045;49.986;8.672;2022-12-29T02:46:51;4.32;;;2.22;;
27257;SDS011;62045;49.986;8.672;2022-12-29T02:51:54;5.97;;;2.60;;
27257;SDS011;62045;49.986;8.672;2022-12-29T02:57:00;4.80;;;2.75;;
27257;SDS011;62045;49.986;8.672;2022-12-29T03:02:07;6.20;;;2.40;;
27257;SDS011;62045;49.986;8.672;2022-12-29T03:07:28;6.82;;;2.88;;
27257;SDS011;62045;49.986;8.672;2022-12-29T03:12:40;4.72;;;2.28;;
27257;SDS011;62045;49.986;8.672;2022-12-29T03:17:51;5.50;;;1.85;;
27257;SDS011;62045;49.986;8.672;2022-12-29T03:22:56;4.13;;;1.90;;
27257;SDS011;62045;49.986;8.672;2022-12-29T03:28:01;4.07;;;1.58;;
27257;SDS011;62045;49.986;8.672;2022-12-29T03:33:12;3.90;;;2.00;;
27257;SDS011;62045;49.986;8.672;2022-12-29T03:38:15;6.22;;;2.20;;
27257;SDS011;62045;49.986;8.672;2022-12-29T03:43:21;3.85;;;1.65;;
27257;SDS011;62045;49.986;8.672;2022-12-29T03:48:24;4.85;;;2.00;;
27257;SDS011;62045;49.986;8.672;2022-12-29T03:53:27;5.78;;;2.03;;
27257;SDS011;62045;49.986;8.672;2022-12-29T03:58:29;4.30;;;1.60;;
27257;SDS011;62045;49.986;8.672;2022-12-29T04:03:46;3.42;;;1.60;;
27257;SDS011;62045;49.986;8.672;2022-12-29T04:08:47;3.45;;;1.77;;
27257;SDS011;62045;49.986;8.672;2022-12-29T04:13:48;4.88;;;2.00;;
27257;SDS011;62045;49.986;8.672;2022-12-29T04:18:54;3.60;;;1.70;;
27257;SDS011;62045;49.986;8.672;2022-12-29T04:23:56;4.63;;;1.95;;
27257;SDS011;62045;49.986;8.672;2022-12-29T04:28:57;4.90;;;2.17;;
27257;SDS011;62045;49.986;8.672;2022-12-29T04:34:17;3.75;;;1.58;;
27257;SDS011;62045;49.986;8.672;2022-12-29T04:39:20;3.40;;;1.40;;
27257;SDS011;62045;49.986;8.672;2022-12-29T04:44:22;4.78;;;1.85;;
27257;SDS011;62045;49.986;8.672;2022-12-29T04:49:47;4.13;;;2.10;;
27257;SDS011;62045;49.986;8.672;2022-12-29T04:55:10;3.83;;;1.55;;
27257;SDS011;62045;49.986;8.672;2022-12-29T05:00:12;5.47;;;1.80;;
27257;SDS011;62045;49.986;8.672;2022-12-29T05:05:15;4.13;;;1.67;;
27257;SDS011;62045;49.986;8.672;2022-12-29T05:10:20;3.88;;;1.40;;
27257;SDS011;62045;49.986;8.672;2022-12-29T05:15:23;4.03;;;1.43;;
27257;SDS011;62045;49.986;8.672;2022-12-29T05:20:25;3.28;;;1.30;;
27257;SDS011;62045;49.986;8.672;2022-12-29T05:25:26;3.05;;;1.20;;
27257;SDS011;62045;49.986;8.672;2022-12-29T05:30:42;4.20;;;1.52;;
27257;SDS011;62045;49.986;8.672;2022-12-29T05:35:44;3.40;;;1.38;;
27257;SDS011;62045;49.986;8.672;2022-12-29T05:40:46;3.17;;;1.50;;
27257;SDS011;62045;49.986;8.672;2022-12-29T05:46:00;3.78;;;1.38;;
27257;SDS011;62045;49.986;8.672;2022-12-29T05:51:20;2.08;;;1.10;;
27257;SDS011;62045;49.986;8.672;2022-12-29T05:56:23;4.32;;;2.33;;
27257;SDS011;62045;49.986;8.672;2022-12-29T06:01:30;4.32;;;1.35;;
27257;SDS011;62045;49.986;8.672;2022-12-29T06:06:33;2.90;;;1.02;;
27257;SDS011;62045;49.986;8.672;2022-12-29T06:11:33;2.67;;;1.40;;
27257;SDS011;62045;49.986;8.672;2022-12-29T06:16:34;3.22;;;1.00;;
27257;SDS011;62045;49.986;8.672;2022-12-29T06:21:40;3.00;;;1.25;;
27257;SDS011;62045;49.986;8.672;2022-12-29T06:26:41;2.67;;;1.15;;
27257;SDS011;62045;49.986;8.672;2022-12-29T06:31:41;2.75;;;1.30;;
27257;SDS011;62045;49.986;8.672;2022-12-29T06:36:44;3.35;;;1.45;;
27257;SDS011;62045;49.986;8.672;2022-12-29T06:41:44;2.85;;;1.20;;
27257;SDS011;62045;49.986;8.672;2022-12-29T06:46:45;3.97;;;1.35;;
27257;SDS011;62045;49.986;8.672;2022-12-29T06:51:47;3.08;;;1.23;;
27257;SDS011;62045;49.986;8.672;2022-12-29T06:56:48;3.60;;;1.30;;
27257;SDS011;62045;49.986;8.672;2022-12-29T07:01:49;3.08;;;1.15;;
27257;SDS011;62045;49.986;8.672;2022-12-29T07:06:51;2.50;;;1.10;;
27257;SDS011;62045;49.986;8.672;2022-12-29T07:11:51;1.88;;;0.85;;
27257;SDS011;62045;49.986;8.672;2022-12-29T07:16:52;5.53;;;1.05;;
27257;SDS011;62045;49.986;8.672;2022-12-29T07:21:55;3.95;;;1.00;;
27257;SDS011;62045;49.986;8.672;2022-12-29T07:26:55;2.63;;;1.30;;
27257;SDS011;62045;49.986;8.672;2022-12-29T07:31:56;3.10;;;1.02;;
27257;SDS011;62045;49.986;8.672;2022-12-29T07:36:58;4.32;;;0.90;;
27257;SDS011;62045;49.986;8.672;2022-12-29T07:41:59;3.00;;;1.05;;
27257;SDS011;62045;49.986;8.672;2022-12-29T07:47:04;8.40;;;1.10;;
27257;SDS011;62045;49.986;8.672;2022-12-29T07:52:06;5.97;;;1.27;;
27257;SDS011;62045;49.986;8.672;2022-12-29T07:57:06;6.90;;;2.15;;
27257;SDS011;62045;49.986;8.672;2022-12-29T08:02:08;8.82;;;1.50;;
27257;SDS011;62045;49.986;8.672;2022-12-29T08:07:11;18.40;;;5.05;;
27257;SDS011;62045;49.986;8.672;2022-12-29T08:12:11;10.57;;;3.63;;
27257;SDS011;62045;49.986;8.672;2022-12-29T08:17:12;8.63;;;3.13;;
27257;SDS011;62045;49.986;8.672;2022-12-29T08:22:14;8.02;;;2.50;;
27257;SDS011;62045;49.986;8.672;2022-12-29T08:27:16;8.77;;;2.70;;
27257;SDS011;62045;49.986;8.672;2022-12-29T08:32:17;10.52;;;3.45;;
27257;SDS011;62045;49.986;8.672;2022-12-29T08:37:19;5.72;;;2.45;;
27257;SDS011;62045;49.986;8.672;2022-12-29T08:42:19;5.97;;;2.22;;
27257;SDS011;62045;49.986;8.672;2022-12-29T08:47:20;6.55;;;2.22;;
27257;SDS011;62045;49.986;8.672;2022-12-29T08:52:22;7.25;;;2.20;;
27257;SDS011;62045;49.986;8.672;2022-12-29T08:57:23;9.48;;;3.03;;
27257;SDS011;62045;49.986;8.672;2022-12-29T09:02:39;7.93;;;2.08;;
27257;SDS011;62045;49.986;8.672;2022-12-29T09:07:41;8.10;;;2.17;;
27257;SDS011;62045;49.986;8.672;2022-12-29T09:12:41;7.25;;;2.03;;
27257;SDS011;62045;49.986;8.672;2022-12-29T09:17:42;9.25;;;2.35;;
27257;SDS011;62045;49.986;8.672;2022-12-29T09:22:44;6.45;;;2.20;;
27257;SDS011;62045;49.986;8.672;2022-12-29T09:27:46;9.03;;;2.70;;
27257;SDS011;62045;49.986;8.672;2022-12-29T09:32:46;7.00;;;2.10;;
27257;SDS011;62045;49.986;8.672;2022-12-29T09:37:48;6.60;;;2.03;;
27257;SDS011;62045;49.986;8.672;2022-12-29T09:42:52;6.97;;;2.03;;
27257;SDS011;62045;49.986;8.672;2022-12-29T09:48:14;4.95;;;2.03;;
27257;SDS011;62045;49.986;8.672;2022-12-29T09:53:22;5.38;;;2.10;;
27257;SDS011;62045;49.986;8.672;2022-12-29T09:58:30;12.52;;;2.00;;
27257;SDS011;62045;49.986;8.672;2022-12-29T10:03:40;7.15;;;2.13;;
27257;SDS011;62045;49.986;8.672;2022-12-29T10:08:49;6.38;;;1.85;;
27257;SDS011;62045;49.986;8.672;2022-12-29T10:14:01;13.60;;;2.38;;
27257;SDS011;62045;49.986;8.672;2022-12-29T10:19:24;8.32;;;1.50;;
27257;SDS011;62045;49.986;8.672;2022-12-29T10:24:37;6.82;;;2.22;;
27257;SDS011;62045;49.986;8.672;2022-12-29T10:29:39;6.32;;;1.70;;
27257;SDS011;62045;49.986;8.672;2022-12-29T10:34:45;5.47;;;2.03;;
27257;SDS011;62045;49.986;8.672;2022-12-29T10:39:50;9.30;;;1.92;;
27257;SDS011;62045;49.986;8.672;2022-12-29T10:44:53;6.07;;;1.98;;
27257;SDS011;62045;49.986;8.672;2022-12-29T10:49:55;4.38;;;1.50;;
27257;SDS011;62045;49.986;8.672;2022-12-29T10:54:59;4.47;;;1.60;;
27257;SDS011;62045;49.986;8.672;2022-12-29T11:00:08;4.55;;;1.83;;
27257;SDS011;62045;49.986;8.672;2022-12-29T11:05:13;4.22;;;1.60;;
27257;SDS011;62045;49.986;8.672;2022-12-29T11:10:28;4.80;;;1.83;;
27257;SDS011;62045;49.986;8.672;2022-12-29T11:15:40;4.20;;;1.35;;
27257;SDS011;62045;49.986;8.672;2022-12-29T11:20:41;3.92;;;1.17;;
27257;SDS011;62045;49.986;8.672;2022-12-29T11:25:43;4.68;;;1.50;;
27257;SDS011;62045;49.986;8.672;2022-12-29T11:30:44;4.28;;;1.27;;
27257;SDS011;62045;49.986;8.672;2022-12-29T11:35:57;3.65;;;1.17;;
27257;SDS011;62045;49.986;8.672;2022-12-29T11:41:00;2.42;;;1.02;;
27257;SDS011;62045;49.986;8.672;2022-12-29T11:46:01;3.17;;;1.10;;
27257;SDS011;62045;49.986;8.672;2022-12-29T11:51:02;3.05;;;1.10;;
27257;SDS011;62045;49.986;8.672;2022-12-29T11:56:06;3.95;;;1.35;;
27257;SDS011;62045;49.986;8.672;2022-12-29T12:01:11;3.58;;;1.02;;
27257;SDS011;62045;49.986;8.672;2022-12-29T12:06:16;4.50;;;1.30;;
27257;SDS011;62045;49.986;8.672;2022-12-29T12:11:22;3.13;;;1.38;;
27257;SDS011;62045;49.986;8.672;2022-12-29T12:16:27;3.85;;;1.13;;
27257;SDS011;62045;49.986;8.672;2022-12-29T12:21:34;3.38;;;1.10;;
27257;SDS011;62045;49.986;8.672;2022-12-29T12:26:42;2.35;;;0.98;;
27257;SDS011;62045;49.986;8.672;2022-12-29T12:31:49;4.80;;;1.58;;
27257;SDS011;62045;49.986;8.672;2022-12-29T12:37:06;6.05;;;1.25;;
27257;SDS011;62045;49.986;8.672;2022-12-29T12:42:34;3.97;;;1.05;;
27257;SDS011;62045;49.986;8.672;2022-12-29T12:47:51;4.20;;;0.85;;
27257;SDS011;62045;49.986;8.672;2022-12-29T12:58:38;3.03;;;0.98;;
27257;SDS011;62045;49.986;8.672;2022-12-29T13:03:52;2.35;;;0.98;;
27257;SDS011;62045;49.986;8.672;2022-12-29T13:09:17;2.67;;;0.98;;
27257;SDS011;62045;49.986;8.672;2022-12-29T13:14:33;2.90;;;0.80;;
27257;SDS011;62045;49.986;8.672;2022-12-29T13:19:41;3.10;;;0.93;;
27257;SDS011;62045;49.986;8.672;2022-12-29T13:24:51;3.20;;;1.00;;
27257;SDS011;62045;49.986;8.672;2022-12-29T13:30:05;2.55;;;0.70;;
27257;SDS011;62045;49.986;8.672;2022-12-29T13:35:22;1.70;;;0.68;;
27257;SDS011;62045;49.986;8.672;2022-12-29T13:40:34;2.35;;;0.70;;
27257;SDS011;62045;49.986;8.672;2022-12-29T13:45:41;2.75;;;0.85;;
27257;SDS011;62045;49.986;8.672;2022-12-29T13:55:49;1.33;;;0.63;;
27257;SDS011;62045;49.986;8.672;2022-12-29T14:00:57;1.40;;;0.70;;
27257;SDS011;62045;49.986;8.672;2022-12-29T14:06:03;2.75;;;0.93;;
27257;SDS011;62045;49.986;8.672;2022-12-29T14:11:12;2.25;;;0.75;;
27257;SDS011;62045;49.986;8.672;2022-12-29T14:21:28;3.10;;;0.90;;
27257;SDS011;62045;49.986;8.672;2022-12-29T14:26:35;1.92;;;0.70;;
27257;SDS011;62045;49.986;8.672;2022-12-29T14:31:37;1.90;;;0.75;;
27257;SDS011;62045;49.986;8.672;2022-12-29T14:36:38;3.28;;;1.10;;
27257;SDS011;62045;49.986;8.672;2022-12-29T14:41:40;4.30;;;1.02;;
27257;SDS011;62045;49.986;8.672;2022-12-29T14:46:46;4.18;;;1.10;;
27257;SDS011;62045;49.986;8.672;2022-12-29T14:51:55;1.75;;;0.60;;
27257;SDS011;62045;49.986;8.672;2022-12-29T14:57:07;1.70;;;0.70;;
27257;SDS011;62045;49.986;8.672;2022-12-29T15:02:17;2.03;;;0.63;;
27257;SDS011;62045;49.986;8.672;2022-12-29T15:07:21;1.85;;;0.60;;
27257;SDS011;62045;49.986;8.672;2022-12-29T15:12:23;2.50;;;0.80;;
27257;SDS011;62045;49.986;8.672;2022-12-29T15:17:34;1.20;;;0.60;;
27257;SDS011;62045;49.986;8.672;2022-12-29T15:22:35;1.92;;;0.40;;
27257;SDS011;62045;49.986;8.672;2022-12-29T15:27:35;1.98;;;0.63;;
27257;SDS011;62045;49.986;8.672;2022-12-29T15:32:40;1.55;;;0.65;;
27257;SDS011;62045;49.986;8.672;2022-12-29T15:37:43;2.03;;;0.75;;
27257;SDS011;62045;49.986;8.672;2022-12-29T15:42:48;1.77;;;0.70;;
27257;SDS011;62045;49.986;8.672;2022-12-29T15:47:58;1.65;;;0.60;;
27257;SDS011;62045;49.986;8.672;2022-12-29T15:52:59;5.43;;;0.90;;
27257;SDS011;62045;49.986;8.672;2022-12-29T15:58:03;2.70;;;0.82;;
27257;SDS011;62045;49.986;8.672;2022-12-29T16:03:06;2.65;;;0.70;;
27257;SDS011;62045;49.986;8.672;2022-12-29T16:08:21;3.78;;;0.85;;
27257;SDS011;62045;49.986;8.672;2022-12-29T16:13:28;2.47;;;0.50;;
27257;SDS011;62045;49.986;8.672;2022-12-29T16:18:33;4.15;;;0.70;;
27257;SDS011;62045;49.986;8.672;2022-12-29T16:23:35;2.42;;;0.70;;
27257;SDS011;62045;49.986;8.672;2022-12-29T16:28:38;1.55;;;0.70;;
27257;SDS011;62045;49.986;8.672;2022-12-29T16:38:46;3.63;;;0.55;;
27257;SDS011;62045;49.986;8.672;2022-12-29T16:43:47;4.85;;;0.90;;
27257;SDS011;62045;49.986;8.672;2022-12-29T16:48:50;1.83;;;0.63;;
27257;SDS011;62045;49.986;8.672;2022-12-29T16:53:53;1.88;;;0.50;;
27257;SDS011;62045;49.986;8.672;2022-12-29T16:58:58;1.67;;;0.70;;
27257;SDS011;62045;49.986;8.672;2022-12-29T17:04:06;2.78;;;0.65;;
27257;SDS011;62045;49.986;8.672;2022-12-29T17:09:15;2.05;;;0.63;;
27257;SDS011;62045;49.986;8.672;2022-12-29T17:14:18;4.00;;;0.88;;
27257;SDS011;62045;49.986;8.672;2022-12-29T17:19:25;2.35;;;0.45;;
27257;SDS011;62045;49.986;8.672;2022-12-29T17:24:29;1.65;;;0.57;;
27257;SDS011;62045;49.986;8.672;2022-12-29T17:29:31;1.30;;;0.60;;
27257;SDS011;62045;49.986;8.672;2022-12-29T17:34:36;2.65;;;0.77;;
27257;SDS011;62045;49.986;8.672;2022-12-29T17:39:37;1.45;;;0.55;;
27257;SDS011;62045;49.986;8.672;2022-12-29T17:44:37;2.47;;;0.70;;
27257;SDS011;62045;49.986;8.672;2022-12-29T17:49:39;3.92;;;1.08;;
27257;SDS011;62045;49.986;8.672;2022-12-29T17:54:41;2.17;;;0.68;;
27257;SDS011;62045;49.986;8.672;2022-12-29T17:59:45;3.35;;;1.30;;
27257;SDS011;62045;49.986;8.672;2022-12-29T18:04:47;1.95;;;0.70;;
27257;SDS011;62045;49.986;8.672;2022-12-29T18:09:48;3.33;;;1.00;;
27257;SDS011;62045;49.986;8.672;2022-12-29T18:14:48;2.10;;;0.70;;
27257;SDS011;62045;49.986;8.672;2022-12-29T18:19:50;3.45;;;0.93;;
27257;SDS011;62045;49.986;8.672;2022-12-29T18:24:51;4.97;;;0.93;;
27257;SDS011;62045;49.986;8.672;2022-12-29T18:29:52;5.82;;;1.30;;
27257;SDS011;62045;49.986;8.672;2022-12-29T18:34:54;6.88;;;1.35;;
27257;SDS011;62045;49.986;8.672;2022-12-29T18:39:54;4.72;;;1.20;;
27257;SDS011;62045;49.986;8.672;2022-12-29T18:44:55;8.20;;;1.40;;
27257;SDS011;62045;49.986;8.672;2022-12-29T18:49:57;4.45;;;1.20;;
27257;SDS011;62045;49.986;8.672;2022-12-29T18:54:58;5.97;;;1.42;;
27257;SDS011;62045;49.986;8.672;2022-12-29T18:59:58;6.90;;;1.10;;
27257;SDS011;62045;49.986;8.672;2022-12-29T19:05:01;4.50;;;0.82;;
27257;SDS011;62045;49.986;8.672;2022-12-29T19:10:02;4.28;;;1.17;;
27257;SDS011;62045;49.986;8.672;2022-12-29T19:15:03;8.10;;;1.17;;
27257;SDS011;62045;49.986;8.672;2022-12-29T19:20:09;4.47;;;1.42;;
27257;SDS011;62045;49.986;8.672;2022-12-29T19:25:26;6.18;;;1.70;;
27257;SDS011;62045;49.986;8.672;2022-12-29T19:30:27;6.88;;;1.50;;
27257;SDS011;62045;49.986;8.672;2022-12-29T19:35:29;3.42;;;1.17;;
27257;SDS011;62045;49.986;8.672;2022-12-29T19:40:31;5.65;;;1.25;;
27257;SDS011;62045;49.986;8.672;2022-12-29T19:45:32;4.65;;;1.52;;
27257;SDS011;62045;49.986;8.672;2022-12-29T19:50:34;4.05;;;1.50;;
27257;SDS011;62045;49.986;8.672;2022-12-29T19:55:35;3.28;;;1.20;;
27257;SDS011;62045;49.986;8.672;2022-12-29T20:00:37;6.65;;;1.08;;
27257;SDS011;62045;49.986;8.672;2022-12-29T20:05:39;4.03;;;1.42;;
27257;SDS011;62045;49.986;8.672;2022-12-29T20:10:40;4.60;;;1.20;;
27257;SDS011;62045;49.986;8.672;2022-12-29T20:15:41;3.78;;;1.33;;
27257;SDS011;62045;49.986;8.672;2022-12-29T20:20:44;5.38;;;1.20;;
27257;SDS011;62045;49.986;8.672;2022-12-29T20:25:45;7.15;;;1.73;;
27257;SDS011;62045;49.986;8.672;2022-12-29T20:30:53;3.67;;;1.10;;
27257;SDS011;62045;49.986;8.672;2022-12-29T20:36:03;3.03;;;1.05;;
27257;SDS011;62045;49.986;8.672;2022-12-29T20:41:05;2.90;;;1.38;;
27257;SDS011;62045;49.986;8.672;2022-12-29T20:46:06;4.80;;;1.25;;
27257;SDS011;62045;49.986;8.672;2022-12-29T20:51:09;4.30;;;1.73;;
27257;SDS011;62045;49.986;8.672;2022-12-29T20:56:12;4.30;;;1.38;;
27257;SDS011;62045;49.986;8.672;2022-12-29T21:06:17;3.10;;;1.10;;
27257;SDS011;62045;49.986;8.672;2022-12-29T21:11:18;4.75;;;1.60;;
27257;SDS011;62045;49.986;8.672;2022-12-29T21:16:20;3.13;;;1.40;;
27257;SDS011;62045;49.986;8.672;2022-12-29T21:21:23;2.88;;;1.40;;
27257;SDS011;62045;49.986;8.672;2022-12-29T21:26:24;4.03;;;1.40;;
27257;SDS011;62045;49.986;8.672;2022-12-29T21:31:25;4.70;;;1.50;;
27257;SDS011;62045;49.986;8.672;2022-12-29T21:36:29;3.90;;;1.33;;
27257;SDS011;62045;49.986;8.672;2022-12-29T21:41:31;3.55;;;1.30;;
27257;SDS011;62045;49.986;8.672;2022-12-29T21:46:32;3.42;;;1.40;;
27257;SDS011;62045;49.986;8.672;2022-12-29T21:51:35;3.60;;;1.48;;
27257;SDS011;62045;49.986;8.672;2022-12-29T21:56:36;3.55;;;1.40;;
27257;SDS011;62045;49.986;8.672;2022-12-29T22:01:37;4.53;;;1.48;;
27257;SDS011;62045;49.986;8.672;2022-12-29T22:06:39;3.17;;;1.42;;
27257;SDS011;62045;49.986;8.672;2022-12-29T22:11:39;2.20;;;1.02;;
27257;SDS011;62045;49.986;8.672;2022-12-29T22:16:40;2.95;;;1.50;;
27257;SDS011;62045;49.986;8.672;2022-12-29T22:21:42;3.58;;;1.55;;
27257;SDS011;62045;49.986;8.672;2022-12-29T22:26:43;2.85;;;1.48;;
27257;SDS011;62045;49.986;8.672;2022-12-29T22:31:44;4.05;;;1.10;;
27257;SDS011;62045;49.986;8.672;2022-12-29T22:36:46;3.80;;;1.42;;
27257;SDS011;62045;49.986;8.672;2022-12-29T22:41:46;3.30;;;1.23;;
27257;SDS011;62045;49.986;8.672;2022-12-29T22:46:47;4.65;;;1.60;;
27257;SDS011;62045;49.986;8.672;2022-12-29T22:51:49;4.53;;;1.70;;
27257;SDS011;62045;49.986;8.672;2022-12-29T22:56:50;6.57;;;2.25;;
27257;SDS011;62045;49.986;8.672;2022-12-29T23:01:51;10.68;;;2.88;;
27257;SDS011;62045;49.986;8.672;2022-12-29T23:06:53;7.35;;;2.65;;
27257;SDS011;62045;49.986;8.672;2022-12-29T23:11:53;6.07;;;3.10;;
27257;SDS011;62045;49.986;8.672;2022-12-29T23:16:54;6.63;;;2.85;;
27257;SDS011;62045;49.986;8.672;2022-12-29T23:21:56;6.53;;;3.78;;
27257;SDS011;62045;49.986;8.672;2022-12-29T23:26:57;8.43;;;4.03;;
27257;SDS011;62045;49.986;8.672;2022-12-29T23:31:57;10.60;;;5.10;;
27257;SDS011;62045;49.986;8.672;2022-12-29T23:36:59;10.20;;;4.63;;
27257;SDS011;62045;49.986;8.672;2022-12-29T23:42:00;11.30;;;5.72;;
27257;SDS011;62045;49.986;8.672;2022-12-29T23:47:01;13.18;;;6.50;;
27257;SDS011;62045;49.986;8.672;2022-12-29T23:52:03;9.52;;;5.47;;
27257;SDS011;62045;49.986;8.672;2022-12-29T23:57:04;14.02;;;5.43;;
